Time;durP1;ratioP1;P1;durP2;ratioP2;P2;SDS_P1;SDS_P2;PMS_P1;PMS_P2;Temp;Humidity;BMP_temperature;BMP_pressure;BME280_temperature;BME280_humidity;BME280_pressure;Samples;Min_cycle;Max_cycle;Signal;HPM_P1;HPM_P2
2024/03/31 00:00:19;;;;;;;97.05;63.92;;;;;;;;;;5013512;28;20025;-72
2024/03/31 00:02:46;;;;;;;101.45;66.28;;;;;;;;;;5033086;28;20057;-71
2024/03/31 00:05:12;;;;;;;105.50;67.65;;;;;;;;;;5032903;28;20025;-72
2024/03/31 00:07:38;;;;;;;110.68;72.15;;;;;;;;;;5032547;28;20021;-69
2024/03/31 00:10:04;;;;;;;111.60;70.57;;;;;;;;;;5032043;28;20128;-69
2024/03/31 00:12:30;;;;;;;118.50;75.85;;;;;;;;;;5032204;28;20017;-70
2024/03/31 00:14:57;;;;;;;127.15;79.68;;;;;;;;;;5032200;28;20101;-69
2024/03/31 00:17:23;;;;;;;125.90;81.35;;;;;;;;;;5032271;28;20064;-67
2024/03/31 00:19:49;;;;;;;122.47;80.03;;;;;;;;;;5032285;28;20034;-71
2024/03/31 00:22:15;;;;;;;126.93;81.13;;;;;;;;;;5032099;28;20017;-71
2024/03/31 00:24:42;;;;;;;129.35;83.13;;;;;;;;;;5032303;28;20267;-71
2024/03/31 00:27:08;;;;;;;127.45;81.15;;;;;;;;;;5032160;28;20481;-71
2024/03/31 00:29:34;;;;;;;125.88;80.85;;;;;;;;;;5031994;28;20033;-68
2024/03/31 00:32:00;;;;;;;137.85;87.65;;;;;;;;;;5031654;28;20025;-68
2024/03/31 00:34:26;;;;;;;124.53;83.25;;;;;;;;;;5032058;28;20556;-69
2024/03/31 00:36:52;;;;;;;134.10;86.50;;;;;;;;;;5031895;28;20030;-70
2024/03/31 00:39:18;;;;;;;139.05;85.28;;;;;;;;;;5014037;28;20025;-70
2024/03/31 00:41:44;;;;;;;128.27;86.38;;;;;;;;;;5031616;28;20041;-69
2024/03/31 00:44:10;;;;;;;135.85;86.40;;;;;;;;;;5031858;28;20022;-70
2024/03/31 00:46:36;;;;;;;131.35;84.97;;;;;;;;;;5031837;28;20048;-70
2024/03/31 00:49:03;;;;;;;130.80;87.35;;;;;;;;;;5031310;28;20052;-70
2024/03/31 00:51:29;;;;;;;137.35;88.63;;;;;;;;;;5031551;28;20032;-69
2024/03/31 00:53:55;;;;;;;127.47;84.95;;;;;;;;;;5031895;28;20086;-69
2024/03/31 00:56:20;;;;;;;135.98;89.32;;;;;;;;;;5031527;28;20033;-69
2024/03/31 00:58:46;;;;;;;137.57;90.57;;;;;;;;;;5031196;28;20029;-70
2024/03/31 01:01:12;;;;;;;138.80;89.25;;;;;;;;;;5031114;28;20397;-69
2024/03/31 01:03:38;;;;;;;138.68;90.10;;;;;;;;;;5031427;28;20136;-71
2024/03/31 01:06:14;;;;;;;133.77;86.75;;;;;;;;;;5031257;28;20052;-69
2024/03/31 01:08:40;;;;;;;141.65;90.43;;;;;;;;;;5031429;28;20021;-69
2024/03/31 01:11:06;;;;;;;134.10;89.53;;;;;;;;;;5030959;28;20020;-70
2024/03/31 01:13:33;;;;;;;132.32;88.28;;;;;;;;;;5031269;28;20029;-69
2024/03/31 01:16:00;;;;;;;124.57;86.13;;;;;;;;;;5013426;28;20027;-69
2024/03/31 01:18:26;;;;;;;135.77;87.15;;;;;;;;;;5031037;28;20026;-69
2024/03/31 01:20:52;;;;;;;136.13;91.53;;;;;;;;;;5031017;28;20029;-69
2024/03/31 01:23:20;;;;;;;131.02;88.85;;;;;;;;;;5030947;28;20022;-68
2024/03/31 01:25:46;;;;;;;136.27;91.32;;;;;;;;;;5030665;28;20071;-68
2024/03/31 01:28:12;;;;;;;131.32;88.90;;;;;;;;;;5030777;28;20025;-69
2024/03/31 01:30:38;;;;;;;131.55;87.68;;;;;;;;;;5030869;28;20017;-67
2024/03/31 01:33:05;;;;;;;130.25;89.65;;;;;;;;;;5030965;28;20033;-69
2024/03/31 01:35:31;;;;;;;129.70;88.15;;;;;;;;;;5031631;28;20098;-68
2024/03/31 01:37:57;;;;;;;128.00;87.40;;;;;;;;;;5031405;28;20489;-70
2024/03/31 01:40:23;;;;;;;127.93;87.47;;;;;;;;;;5032350;28;20025;-69
2024/03/31 01:42:49;;;;;;;129.40;87.57;;;;;;;;;;5034082;28;20028;-68
2024/03/31 01:45:15;;;;;;;130.57;86.03;;;;;;;;;;5040158;28;20014;-69
2024/03/31 01:47:41;;;;;;;128.88;86.93;;;;;;;;;;5040572;28;20060;-70
2024/03/31 01:50:07;;;;;;;126.57;86.10;;;;;;;;;;5039028;28;20025;-70
2024/03/31 01:52:33;;;;;;;127.90;85.03;;;;;;;;;;5044633;28;20105;-71
2024/03/31 01:54:59;;;;;;;128.50;85.90;;;;;;;;;;5044691;28;20041;-70
2024/03/31 01:57:25;;;;;;;119.20;80.78;;;;;;;;;;5037089;28;20543;-69
2024/03/31 01:59:51;;;;;;;129.60;85.43;;;;;;;;;;5032529;28;20018;-68
2024/03/31 02:02:17;;;;;;;126.13;86.93;;;;;;;;;;5014735;28;20147;-69
2024/03/31 02:04:43;;;;;;;127.95;84.82;;;;;;;;;;5030803;28;20632;-71
2024/03/31 02:07:09;;;;;;;123.93;81.45;;;;;;;;;;5032149;28;20052;-70
2024/03/31 02:09:35;;;;;;;121.80;81.50;;;;;;;;;;5014176;28;20023;-70
2024/03/31 02:12:01;;;;;;;123.28;83.70;;;;;;;;;;5031617;28;20029;-70
2024/03/31 02:14:28;;;;;;;120.05;79.72;;;;;;;;;;5032093;28;20018;-70
2024/03/31 02:16:55;;;;;;;124.20;83.90;;;;;;;;;;5031919;28;20033;-72
2024/03/31 02:19:23;;;;;;;120.20;80.15;;;;;;;;;;5030113;28;20033;-71
2024/03/31 02:21:49;;;;;;;117.88;80.78;;;;;;;;;;5031456;28;20515;-70
2024/03/31 02:24:15;;;;;;;117.22;79.90;;;;;;;;;;5031471;28;20018;-70
2024/03/31 02:26:41;;;;;;;113.85;76.38;;;;;;;;;;5031788;28;20047;-70
2024/03/31 02:29:07;;;;;;;121.22;81.65;;;;;;;;;;5031879;28;20022;-70
2024/03/31 02:31:33;;;;;;;113.20;77.53;;;;;;;;;;5031582;28;20496;-69
2024/03/31 02:33:59;;;;;;;112.70;77.10;;;;;;;;;;5031127;28;20489;-69
2024/03/31 02:36:25;;;;;;;116.55;77.50;;;;;;;;;;5031587;28;20519;-69
2024/03/31 02:38:51;;;;;;;115.57;77.30;;;;;;;;;;5031356;28;20022;-70
2024/03/31 02:41:17;;;;;;;112.55;78.55;;;;;;;;;;5031380;28;20463;-69
2024/03/31 02:43:43;;;;;;;114.05;75.47;;;;;;;;;;5031342;28;20025;-69
2024/03/31 02:46:09;;;;;;;111.75;77.03;;;;;;;;;;5031362;28;20552;-69
2024/03/31 02:48:35;;;;;;;115.22;73.90;;;;;;;;;;5031312;28;20018;-69
2024/03/31 02:51:01;;;;;;;111.35;76.35;;;;;;;;;;5031260;28;20521;-70
2024/03/31 02:53:27;;;;;;;111.93;77.53;;;;;;;;;;5031112;28;20044;-69
2024/03/31 02:55:53;;;;;;;109.60;74.07;;;;;;;;;;5031205;28;20026;-70
2024/03/31 02:58:19;;;;;;;107.85;73.30;;;;;;;;;;5044433;23;20104;-65
2024/03/31 03:00:45;;;;;;;106.50;71.78;;;;;;;;;;5048785;28;20120;-65
2024/03/31 03:03:11;;;;;;;104.85;70.40;;;;;;;;;;5048977;28;20055;-66
2024/03/31 03:05:37;;;;;;;106.40;71.50;;;;;;;;;;5049582;28;20017;-67
2024/03/31 03:08:03;;;;;;;108.05;69.30;;;;;;;;;;5049297;28;20040;-67
2024/03/31 03:10:29;;;;;;;104.93;68.97;;;;;;;;;;5049117;28;20403;-66
2024/03/31 03:12:58;;;;;;;101.93;69.22;;;;;;;;;;5049201;28;20496;-65
2024/03/31 03:15:24;;;;;;;101.00;68.05;;;;;;;;;;5049491;28;20036;-64
2024/03/31 03:17:51;;;;;;;102.88;68.13;;;;;;;;;;5048980;28;20037;-64
2024/03/31 03:20:18;;;;;;;99.05;67.32;;;;;;;;;;5049578;28;20025;-64
2024/03/31 03:22:44;;;;;;;100.35;66.57;;;;;;;;;;5049199;28;20032;-65
2024/03/31 03:25:10;;;;;;;99.53;66.65;;;;;;;;;;5049454;28;20270;-65
2024/03/31 03:27:36;;;;;;;99.70;65.95;;;;;;;;;;5049264;28;20397;-67
2024/03/31 03:30:03;;;;;;;96.82;64.32;;;;;;;;;;5049088;28;20131;-67
2024/03/31 03:32:29;;;;;;;97.40;64.15;;;;;;;;;;5049076;28;20024;-66
2024/03/31 03:34:55;;;;;;;99.00;64.85;;;;;;;;;;5050266;28;20025;-64
2024/03/31 03:37:21;;;;;;;95.07;61.88;;;;;;;;;;5053421;28;20029;-65
2024/03/31 03:39:48;;;;;;;91.55;61.40;;;;;;;;;;5052889;28;20033;-64
2024/03/31 03:42:14;;;;;;;98.03;60.78;;;;;;;;;;5053106;28;20024;-65
2024/03/31 03:44:42;;;;;;;92.60;62.67;;;;;;;;;;5052823;28;20025;-64
2024/03/31 03:47:08;;;;;;;87.22;58.97;;;;;;;;;;5053098;28;20052;-65
2024/03/31 03:49:34;;;;;;;85.43;59.20;;;;;;;;;;5052928;28;20013;-65
2024/03/31 03:52:00;;;;;;;87.43;57.95;;;;;;;;;;5052874;28;20104;-64
2024/03/31 03:54:26;;;;;;;94.10;58.75;;;;;;;;;;5053264;28;20141;-66
2024/03/31 03:56:52;;;;;;;90.72;58.70;;;;;;;;;;5052812;28;20116;-65
2024/03/31 03:59:18;;;;;;;89.50;57.83;;;;;;;;;;5052694;28;20048;-65
2024/03/31 04:01:44;;;;;;;87.53;56.25;;;;;;;;;;5052728;28;20396;-65
2024/03/31 04:04:10;;;;;;;84.78;55.83;;;;;;;;;;5052757;28;20021;-67
2024/03/31 04:06:36;;;;;;;85.13;56.72;;;;;;;;;;5053162;28;20469;-64
2024/03/31 04:09:02;;;;;;;81.82;55.30;;;;;;;;;;5052729;28;20029;-65
2024/03/31 04:11:28;;;;;;;79.95;52.55;;;;;;;;;;5052755;28;20100;-66
2024/03/31 04:13:54;;;;;;;78.47;53.60;;;;;;;;;;5052741;28;20082;-66
2024/03/31 04:16:20;;;;;;;86.35;55.72;;;;;;;;;;5052701;28;20020;-66
2024/03/31 04:18:46;;;;;;;82.38;52.95;;;;;;;;;;5052169;28;20053;-65
2024/03/31 04:21:12;;;;;;;77.97;53.17;;;;;;;;;;5052319;28;20095;-66
2024/03/31 04:23:38;;;;;;;77.28;52.63;;;;;;;;;;5052429;28;20048;-66
2024/03/31 04:26:04;;;;;;;77.75;51.70;;;;;;;;;;5052219;28;20108;-67
2024/03/31 04:28:30;;;;;;;79.47;51.38;;;;;;;;;;5052377;28;20013;-67
2024/03/31 04:30:56;;;;;;;77.97;51.63;;;;;;;;;;5052153;28;20094;-66
2024/03/31 04:33:22;;;;;;;74.30;50.10;;;;;;;;;;5052337;28;20056;-66
2024/03/31 04:35:48;;;;;;;75.70;51.55;;;;;;;;;;5052099;28;20438;-66
2024/03/31 04:38:14;;;;;;;76.18;51.00;;;;;;;;;;5052149;28;20109;-67
2024/03/31 04:40:40;;;;;;;72.93;49.17;;;;;;;;;;5052105;28;20067;-65
2024/03/31 04:43:06;;;;;;;72.35;48.85;;;;;;;;;;5051855;28;20056;-66
2024/03/31 04:45:32;;;;;;;72.13;47.83;;;;;;;;;;5051566;28;20078;-67
2024/03/31 04:48:01;;;;;;;72.10;49.22;;;;;;;;;;5051883;28;20033;-67
2024/03/31 04:50:27;;;;;;;74.63;48.58;;;;;;;;;;5052043;28;20025;-63
2024/03/31 04:52:53;;;;;;;74.15;48.33;;;;;;;;;;5051932;28;20088;-65
2024/03/31 04:55:20;;;;;;;66.65;45.65;;;;;;;;;;5051483;28;20436;-65
2024/03/31 04:57:46;;;;;;;67.95;45.65;;;;;;;;;;5051832;28;20066;-67
2024/03/31 05:00:12;;;;;;;77.32;48.03;;;;;;;;;;5051573;28;20025;-65
2024/03/31 05:02:37;;;;;;;69.18;44.90;;;;;;;;;;5051423;28;20522;-63
2024/03/31 05:05:03;;;;;;;63.95;43.45;;;;;;;;;;5051695;28;20124;-65
2024/03/31 05:07:29;;;;;;;66.68;44.58;;;;;;;;;;5051715;28;20407;-65
2024/03/31 05:09:56;;;;;;;65.38;44.22;;;;;;;;;;5051383;28;20025;-66
2024/03/31 05:12:21;;;;;;;66.70;44.13;;;;;;;;;;5051446;28;20106;-65
2024/03/31 05:14:47;;;;;;;66.50;44.90;;;;;;;;;;5051570;28;20029;-66
2024/03/31 05:17:14;;;;;;;63.03;42.90;;;;;;;;;;5051449;28;20048;-64
2024/03/31 05:19:40;;;;;;;63.90;43.65;;;;;;;;;;5050921;28;20031;-65
2024/03/31 05:22:06;;;;;;;58.83;41.17;;;;;;;;;;5051359;28;20493;-65
2024/03/31 05:24:32;;;;;;;60.08;41.00;;;;;;;;;;5051407;28;20021;-64
2024/03/31 05:26:58;;;;;;;60.22;40.45;;;;;;;;;;5051165;28;20029;-65
2024/03/31 05:29:24;;;;;;;57.70;39.58;;;;;;;;;;5050912;28;20784;-64
2024/03/31 05:31:50;;;;;;;59.90;41.03;;;;;;;;;;5050978;28;20048;-64
2024/03/31 05:34:16;;;;;;;58.80;40.03;;;;;;;;;;5051250;28;20104;-63
2024/03/31 05:36:41;;;;;;;60.50;40.42;;;;;;;;;;5051118;28;20112;-65
2024/03/31 05:39:07;;;;;;;59.00;38.85;;;;;;;;;;5050661;28;20017;-66
2024/03/31 05:41:34;;;;;;;61.95;41.08;;;;;;;;;;5051097;28;20542;-63
2024/03/31 05:44:00;;;;;;;58.63;39.95;;;;;;;;;;5050908;28;20505;-64
2024/03/31 05:46:28;;;;;;;61.55;38.53;;;;;;;;;;5051174;28;20027;-63
2024/03/31 05:48:54;;;;;;;55.35;37.92;;;;;;;;;;5050884;28;20086;-65
2024/03/31 05:51:20;;;;;;;58.72;38.50;;;;;;;;;;5051010;28;20362;-65
2024/03/31 05:53:46;;;;;;;54.00;37.13;;;;;;;;;;5050651;28;20074;-67
2024/03/31 05:56:12;;;;;;;53.72;36.10;;;;;;;;;;5050751;28;20081;-65
2024/03/31 05:58:38;;;;;;;55.10;34.13;;;;;;;;;;5049937;28;20016;-67
2024/03/31 06:01:04;;;;;;;51.50;35.00;;;;;;;;;;5049845;28;20045;-66
2024/03/31 06:03:30;;;;;;;47.55;33.20;;;;;;;;;;5050576;28;20372;-66
2024/03/31 06:05:56;;;;;;;50.33;33.28;;;;;;;;;;5050454;28;20027;-63
2024/03/31 06:08:22;;;;;;;48.83;34.03;;;;;;;;;;5050000;28;20021;-64
2024/03/31 06:10:48;;;;;;;51.17;32.63;;;;;;;;;;5049305;28;20029;-64
2024/03/31 06:13:14;;;;;;;57.42;33.13;;;;;;;;;;5050093;28;20047;-65
2024/03/31 06:15:40;;;;;;;54.45;33.38;;;;;;;;;;5049011;28;20028;-67
2024/03/31 06:18:06;;;;;;;54.65;36.15;;;;;;;;;;5048723;28;20669;-65
2024/03/31 06:20:32;;;;;;;57.00;35.70;;;;;;;;;;5050329;28;20021;-65
2024/03/31 06:22:59;;;;;;;58.80;35.47;;;;;;;;;;5049756;28;20049;-66
2024/03/31 06:25:25;;;;;;;53.83;35.00;;;;;;;;;;5050367;28;20025;-62
2024/03/31 06:27:51;;;;;;;59.42;36.08;;;;;;;;;;5050031;28;20040;-62
2024/03/31 06:30:17;;;;;;;53.78;36.22;;;;;;;;;;5050262;28;20013;-63
2024/03/31 06:32:43;;;;;;;52.47;34.80;;;;;;;;;;5049878;28;20135;-64
2024/03/31 06:35:09;;;;;;;59.72;36.45;;;;;;;;;;5050165;28;20028;-64
2024/03/31 06:37:35;;;;;;;59.40;35.72;;;;;;;;;;5050290;28;20025;-61
2024/03/31 06:40:01;;;;;;;60.80;36.10;;;;;;;;;;5049874;28;20040;-65
2024/03/31 06:42:27;;;;;;;61.70;35.70;;;;;;;;;;5049999;28;20373;-63
2024/03/31 06:44:53;;;;;;;59.13;36.00;;;;;;;;;;5049699;28;20021;-61
2024/03/31 06:47:19;;;;;;;105.38;34.03;;;;;;;;;;5050114;28;20020;-65
2024/03/31 06:49:45;;;;;;;57.83;20.58;;;;;;;;;;5049625;28;20442;-62
2024/03/31 06:52:13;;;;;;;56.67;16.45;;;;;;;;;;5042246;28;20023;-65
2024/03/31 06:54:39;;;;;;;41.13;10.90;;;;;;;;;;5050338;28;20059;-65
2024/03/31 06:57:05;;;;;;;42.47;10.75;;;;;;;;;;5050472;28;20098;-64
2024/03/31 06:59:31;;;;;;;40.30;11.05;;;;;;;;;;5050178;28;20052;-65
2024/03/31 07:01:57;;;;;;;55.50;12.00;;;;;;;;;;5050164;28;20048;-65
2024/03/31 07:04:23;;;;;;;42.05;11.18;;;;;;;;;;5050436;28;20021;-66
2024/03/31 07:06:49;;;;;;;43.78;10.48;;;;;;;;;;5050370;28;20059;-67
2024/03/31 07:09:16;;;;;;;29.15;7.15;;;;;;;;;;5050609;28;20025;-63
2024/03/31 07:11:42;;;;;;;42.45;21.85;;;;;;;;;;5049815;28;20492;-64
2024/03/31 07:14:08;;;;;;;57.20;28.30;;;;;;;;;;5049005;28;20361;-64
2024/03/31 07:16:34;;;;;;;54.03;23.52;;;;;;;;;;5049972;28;20029;-64
2024/03/31 07:19:00;;;;;;;45.70;24.27;;;;;;;;;;5049936;28;20433;-64
2024/03/31 07:21:29;;;;;;;47.72;26.17;;;;;;;;;;5050340;28;20017;-62
2024/03/31 07:23:55;;;;;;;48.22;26.00;;;;;;;;;;5050491;28;20024;-61
2024/03/31 07:26:21;;;;;;;45.10;26.25;;;;;;;;;;5050611;28;20385;-62
2024/03/31 07:28:47;;;;;;;53.85;27.85;;;;;;;;;;5050424;28;20025;-63
2024/03/31 07:31:13;;;;;;;64.28;29.77;;;;;;;;;;5050280;28;20028;-62
2024/03/31 07:33:39;;;;;;;44.60;25.55;;;;;;;;;;5050282;28;20021;-62
2024/03/31 07:36:05;;;;;;;47.95;25.20;;;;;;;;;;5050005;28;20020;-61
2024/03/31 07:38:31;;;;;;;46.70;24.40;;;;;;;;;;5049529;28;20430;-64
2024/03/31 07:40:57;;;;;;;54.67;24.83;;;;;;;;;;5049979;28;20028;-64
2024/03/31 07:43:24;;;;;;;65.05;25.08;;;;;;;;;;5050394;28;20021;-63
2024/03/31 07:45:50;;;;;;;59.63;25.30;;;;;;;;;;5050294;28;20028;-65
2024/03/31 07:48:16;;;;;;;58.67;25.17;;;;;;;;;;5052308;28;20536;-62
2024/03/31 07:50:44;;;;;;;72.00;25.85;;;;;;;;;;5047523;28;20112;-64
2024/03/31 07:53:10;;;;;;;49.90;24.10;;;;;;;;;;5050269;28;20017;-64
2024/03/31 07:55:36;;;;;;;49.30;22.23;;;;;;;;;;5050704;28;20024;-64
2024/03/31 07:58:05;;;;;;;51.17;23.00;;;;;;;;;;5050102;28;20104;-63
2024/03/31 08:00:31;;;;;;;48.17;21.27;;;;;;;;;;5050430;28;20036;-62
2024/03/31 08:02:57;;;;;;;45.25;22.05;;;;;;;;;;5050285;28;20029;-64
2024/03/31 08:05:23;;;;;;;48.17;21.15;;;;;;;;;;5050800;28;20101;-63
2024/03/31 08:07:49;;;;;;;41.50;19.65;;;;;;;;;;5048874;28;20512;-62
2024/03/31 08:10:15;;;;;;;40.80;19.85;;;;;;;;;;5049391;28;20036;-62
2024/03/31 08:12:41;;;;;;;44.47;19.33;;;;;;;;;;5048442;28;20036;-64
2024/03/31 08:15:08;;;;;;;36.80;19.52;;;;;;;;;;5048737;28;20025;-63
2024/03/31 08:17:34;;;;;;;39.95;19.80;;;;;;;;;;5049049;28;20332;-63
2024/03/31 08:20:00;;;;;;;50.30;18.08;;;;;;;;;;5048992;28;20112;-64
2024/03/31 08:22:26;;;;;;;32.85;16.67;;;;;;;;;;5051918;28;20100;-64
2024/03/31 08:24:51;;;;;;;34.13;18.35;;;;;;;;;;5053094;28;20020;-64
2024/03/31 08:27:18;;;;;;;35.33;16.60;;;;;;;;;;5054283;28;20382;-63
2024/03/31 08:29:43;;;;;;;26.60;15.65;;;;;;;;;;5052393;28;20492;-63
2024/03/31 08:32:09;;;;;;;30.75;16.38;;;;;;;;;;5053813;28;20154;-64
2024/03/31 08:34:35;;;;;;;27.95;15.60;;;;;;;;;;5053952;28;20497;-64
2024/03/31 08:37:01;;;;;;;27.27;14.65;;;;;;;;;;5054027;28;20033;-65
2024/03/31 08:39:27;;;;;;;29.27;15.18;;;;;;;;;;5053851;28;20021;-65
2024/03/31 08:41:57;;;;;;;26.38;13.32;;;;;;;;;;5053451;28;20024;-64
2024/03/31 08:44:24;;;;;;;26.90;14.27;;;;;;;;;;5053973;28;20055;-64
2024/03/31 08:46:50;;;;;;;26.77;13.32;;;;;;;;;;5053867;28;20493;-64
2024/03/31 08:49:16;;;;;;;25.92;12.43;;;;;;;;;;5053695;28;20021;-63
2024/03/31 08:51:42;;;;;;;21.90;12.50;;;;;;;;;;5053279;28;20021;-63
2024/03/31 08:54:08;;;;;;;22.55;11.80;;;;;;;;;;5053612;28;20013;-62
2024/03/31 08:56:34;;;;;;;21.83;12.00;;;;;;;;;;5053579;28;20071;-63
2024/03/31 08:59:02;;;;;;;19.83;11.20;;;;;;;;;;5053019;28;20487;-63
2024/03/31 09:01:28;;;;;;;20.45;11.05;;;;;;;;;;5053229;28;20028;-61
2024/03/31 09:03:54;;;;;;;23.70;11.50;;;;;;;;;;5053286;28;20021;-61
2024/03/31 09:06:20;;;;;;;27.63;10.43;;;;;;;;;;5053235;28;20024;-63
2024/03/31 09:08:54;;;;;;;21.50;10.15;;;;;;;;;;5053175;28;20021;-62
2024/03/31 09:11:20;;;;;;;16.65;8.82;;;;;;;;;;5053266;28;20044;-65
2024/03/31 09:13:46;;;;;;;19.95;9.30;;;;;;;;;;5053032;28;20400;-62
2024/03/31 09:16:12;;;;;;;17.67;9.27;;;;;;;;;;5053013;28;20088;-65
2024/03/31 09:18:38;;;;;;;15.95;9.32;;;;;;;;;;5053211;28;20045;-64
2024/03/31 09:21:04;;;;;;;14.70;8.85;;;;;;;;;;5052762;28;20095;-61
2024/03/31 09:23:30;;;;;;;16.42;8.57;;;;;;;;;;5053001;28;20025;-62
2024/03/31 09:25:57;;;;;;;13.45;7.80;;;;;;;;;;5052924;28;20025;-63
2024/03/31 09:28:23;;;;;;;14.50;7.65;;;;;;;;;;5052675;28;20105;-65
2024/03/31 09:30:52;;;;;;;15.60;8.48;;;;;;;;;;5052338;28;20028;-63
2024/03/31 09:33:18;;;;;;;16.67;8.23;;;;;;;;;;5051500;28;20081;-63
2024/03/31 09:35:46;;;;;;;13.98;7.82;;;;;;;;;;5052859;28;20108;-61
2024/03/31 09:38:12;;;;;;;19.27;8.43;;;;;;;;;;5044468;28;20025;-64
2024/03/31 09:40:38;;;;;;;11.60;7.18;;;;;;;;;;5052277;28;20036;-62
2024/03/31 09:43:04;;;;;;;16.92;6.85;;;;;;;;;;5052440;28;20045;-63
2024/03/31 09:45:30;;;;;;;10.80;6.25;;;;;;;;;;5052485;28;20017;-64
2024/03/31 09:48:00;;;;;;;12.68;6.07;;;;;;;;;;5052342;28;20029;-62
2024/03/31 09:50:37;;;;;;;10.45;6.72;;;;;;;;;;5052387;28;20369;-60
2024/03/31 09:53:04;;;;;;;8.98;5.70;;;;;;;;;;5052140;28;20434;-64
2024/03/31 09:55:34;;;;;;;14.02;6.80;;;;;;;;;;5052595;28;20026;-64
2024/03/31 09:58:00;;;;;;;11.90;5.90;;;;;;;;;;5052432;28;20029;-64
2024/03/31 10:00:28;;;;;;;8.60;5.07;;;;;;;;;;5052419;28;20020;-63
2024/03/31 10:02:59;;;;;;;9.43;5.57;;;;;;;;;;5052876;28;20104;-64
2024/03/31 10:05:27;;;;;;;10.20;5.47;;;;;;;;;;5053323;28;20032;-63
2024/03/31 10:07:54;;;;;;;9.80;5.40;;;;;;;;;;5053532;28;20029;-63
2024/03/31 10:10:21;;;;;;;11.55;4.90;;;;;;;;;;5056935;28;20021;-65
2024/03/31 10:12:49;;;;;;;10.45;5.18;;;;;;;;;;5061667;28;20053;-67
2024/03/31 10:15:16;;;;;;;7.43;4.88;;;;;;;;;;5064568;28;20650;-64
2024/03/31 10:17:42;;;;;;;9.55;4.70;;;;;;;;;;5064536;28;20093;-67
2024/03/31 10:20:09;;;;;;;8.98;5.13;;;;;;;;;;5067441;28;20021;-66
2024/03/31 10:22:36;;;;;;;7.13;4.22;;;;;;;;;;5066902;28;20017;-64
2024/03/31 10:25:02;;;;;;;8.20;4.25;;;;;;;;;;5064971;28;20032;-64
2024/03/31 10:27:29;;;;;;;7.45;4.28;;;;;;;;;;5060362;28;20025;-65
2024/03/31 10:29:56;;;;;;;8.35;4.25;;;;;;;;;;5051206;28;20103;-64
2024/03/31 10:32:22;;;;;;;5.55;3.70;;;;;;;;;;5051388;28;20032;-63
2024/03/31 10:34:48;;;;;;;7.20;3.78;;;;;;;;;;5051588;28;20025;-64
2024/03/31 10:37:14;;;;;;;7.32;4.05;;;;;;;;;;5051531;28;20025;-62
2024/03/31 10:39:43;;;;;;;7.30;3.90;;;;;;;;;;5051556;28;20036;-63
2024/03/31 10:42:09;;;;;;;5.35;3.53;;;;;;;;;;5050895;28;20013;-65
2024/03/31 10:44:35;;;;;;;7.25;3.63;;;;;;;;;;5051186;28;20088;-64
2024/03/31 10:47:02;;;;;;;4.35;3.22;;;;;;;;;;5051360;28;20064;-64
2024/03/31 10:49:31;;;;;;;7.70;3.58;;;;;;;;;;5050958;28;20025;-64
2024/03/31 10:52:00;;;;;;;5.35;3.05;;;;;;;;;;5050891;28;20398;-65
2024/03/31 10:54:36;;;;;;;5.78;3.30;;;;;;;;;;5051543;28;20048;-64
2024/03/31 10:57:03;;;;;;;6.22;2.92;;;;;;;;;;5051395;28;20021;-64
2024/03/31 10:59:32;;;;;;;5.07;3.35;;;;;;;;;;5051067;28;20036;-63
2024/03/31 11:02:09;;;;;;;3.97;2.60;;;;;;;;;;5050868;28;20017;-63
2024/03/31 11:04:35;;;;;;;4.47;2.70;;;;;;;;;;5051088;28;20112;-63
2024/03/31 11:07:04;;;;;;;3.63;2.67;;;;;;;;;;5051001;28;20060;-64
2024/03/31 11:09:30;;;;;;;4.18;2.55;;;;;;;;;;5050938;28;20024;-64
2024/03/31 11:11:57;;;;;;;3.53;2.40;;;;;;;;;;5051029;28;20381;-64
2024/03/31 11:14:26;;;;;;;4.63;2.70;;;;;;;;;;5050964;28;20071;-63
2024/03/31 11:16:53;;;;;;;5.07;2.65;;;;;;;;;;5050928;28;20025;-63
2024/03/31 11:19:20;;;;;;;4.47;2.50;;;;;;;;;;5050684;28;20029;-63
2024/03/31 11:21:46;;;;;;;3.63;2.30;;;;;;;;;;5050665;28;20034;-64
2024/03/31 11:24:13;;;;;;;4.28;2.67;;;;;;;;;;5042597;28;20013;-59
2024/03/31 11:26:39;;;;;;;4.55;2.95;;;;;;;;;;5050686;28;20032;-63
2024/03/31 11:29:05;;;;;;;3.50;2.50;;;;;;;;;;5050452;28;20033;-65
2024/03/31 11:31:32;;;;;;;3.75;2.30;;;;;;;;;;5050790;28;20028;-64
2024/03/31 11:33:58;;;;;;;5.95;2.47;;;;;;;;;;5050821;28;20032;-63
2024/03/31 11:36:24;;;;;;;3.67;2.42;;;;;;;;;;5050796;28;20025;-64
2024/03/31 11:38:50;;;;;;;4.05;2.42;;;;;;;;;;5050674;28;20025;-64
2024/03/31 11:41:16;;;;;;;2.22;1.90;;;;;;;;;;5050472;28;20025;-62
2024/03/31 11:43:42;;;;;;;4.35;2.20;;;;;;;;;;5050824;28;20056;-63
2024/03/31 11:46:09;;;;;;;3.55;2.20;;;;;;;;;;5050951;28;20025;-64
2024/03/31 11:48:35;;;;;;;3.35;2.20;;;;;;;;;;5050734;28;20047;-64
2024/03/31 11:51:01;;;;;;;3.15;2.08;;;;;;;;;;5050869;28;20033;-64
2024/03/31 11:53:27;;;;;;;4.50;2.63;;;;;;;;;;5050608;28;20028;-64
2024/03/31 11:55:53;;;;;;;2.88;2.20;;;;;;;;;;5051654;28;20443;-62
2024/03/31 11:58:19;;;;;;;5.88;2.10;;;;;;;;;;5054354;28;20473;-63
2024/03/31 12:00:52;;;;;;;3.53;2.20;;;;;;;;;;5054382;28;20036;-63
2024/03/31 12:03:18;;;;;;;3.35;1.70;;;;;;;;;;5054472;28;20021;-64
2024/03/31 12:05:50;;;;;;;3.58;2.08;;;;;;;;;;5054369;28;20495;-62
2024/03/31 12:08:17;;;;;;;2.15;1.60;;;;;;;;;;5046770;28;20575;-65
2024/03/31 12:10:47;;;;;;;3.28;2.13;;;;;;;;;;5054216;28;20025;-63
2024/03/31 12:13:13;;;;;;;3.05;2.13;;;;;;;;;;5054233;28;20056;-61
2024/03/31 12:15:39;;;;;;;3.58;2.08;;;;;;;;;;5054317;28;20036;-64
2024/03/31 12:18:05;;;;;;;3.05;1.92;;;;;;;;;;5054144;28;20075;-64
2024/03/31 12:20:31;;;;;;;3.10;1.90;;;;;;;;;;5054336;28;20029;-63
2024/03/31 12:22:57;;;;;;;2.40;1.95;;;;;;;;;;5054357;28;20021;-65
2024/03/31 12:25:24;;;;;;;2.78;1.67;;;;;;;;;;5054334;28;20040;-64
2024/03/31 12:27:50;;;;;;;3.00;1.90;;;;;;;;;;5054140;28;20025;-64
2024/03/31 12:30:16;;;;;;;2.83;1.83;;;;;;;;;;5053766;28;20031;-63
2024/03/31 12:32:42;;;;;;;2.63;1.85;;;;;;;;;;5053833;28;20025;-62
2024/03/31 12:35:08;;;;;;;2.03;1.63;;;;;;;;;;5053690;28;20033;-63
2024/03/31 12:37:38;;;;;;;2.47;1.75;;;;;;;;;;5054083;28;20016;-62
2024/03/31 12:40:06;;;;;;;2.63;1.67;;;;;;;;;;5053684;28;20453;-63
2024/03/31 12:42:32;;;;;;;3.05;1.63;;;;;;;;;;5053642;28;20024;-61
2024/03/31 12:44:59;;;;;;;2.90;1.40;;;;;;;;;;5053345;28;20029;-63
2024/03/31 12:47:25;;;;;;;2.75;1.60;;;;;;;;;;5053611;28;20066;-63
2024/03/31 12:49:51;;;;;;;2.08;1.83;;;;;;;;;;5053511;28;20040;-62
2024/03/31 12:52:18;;;;;;;1.92;1.58;;;;;;;;;;5053310;28;20017;-63
2024/03/31 12:54:44;;;;;;;2.33;1.33;;;;;;;;;;5053758;28;20070;-63
2024/03/31 12:57:10;;;;;;;2.35;1.50;;;;;;;;;;5053508;28;20017;-66
2024/03/31 12:59:36;;;;;;;2.58;1.35;;;;;;;;;;5053205;28;20029;-66
2024/03/31 13:02:03;;;;;;;2.30;1.80;;;;;;;;;;5053330;28;20051;-63
2024/03/31 13:04:29;;;;;;;1.70;1.45;;;;;;;;;;5053028;28;20088;-62
2024/03/31 13:06:55;;;;;;;1.42;1.20;;;;;;;;;;5052815;28;20033;-61
2024/03/31 13:09:21;;;;;;;2.90;1.23;;;;;;;;;;5053325;28;20075;-63
2024/03/31 13:11:48;;;;;;;1.55;1.30;;;;;;;;;;5053164;28;20029;-64
2024/03/31 13:14:14;;;;;;;2.50;1.30;;;;;;;;;;5045238;28;20025;-62
2024/03/31 13:16:40;;;;;;;1.65;1.42;;;;;;;;;;5053203;28;20547;-63
2024/03/31 13:19:06;;;;;;;1.70;1.40;;;;;;;;;;5052852;28;20401;-63
2024/03/31 13:21:32;;;;;;;2.00;1.42;;;;;;;;;;5052870;28;20024;-63
2024/03/31 13:23:58;;;;;;;2.13;1.40;;;;;;;;;;5053204;28;20546;-64
2024/03/31 13:26:24;;;;;;;1.73;1.30;;;;;;;;;;5052865;28;20050;-64
2024/03/31 13:28:50;;;;;;;3.90;2.08;;;;;;;;;;5052523;28;20044;-62
2024/03/31 13:31:16;;;;;;;1.55;1.00;;;;;;;;;;5052838;28;20124;-63
2024/03/31 13:33:42;;;;;;;1.92;1.45;;;;;;;;;;5052573;28;20035;-63
2024/03/31 13:36:08;;;;;;;2.05;1.48;;;;;;;;;;5052813;28;20028;-64
2024/03/31 13:38:34;;;;;;;2.38;1.33;;;;;;;;;;5052471;28;20491;-64
2024/03/31 13:41:00;;;;;;;1.30;0.85;;;;;;;;;;5052076;28;20025;-64
2024/03/31 13:43:27;;;;;;;2.10;1.25;;;;;;;;;;5051435;28;20044;-64
2024/03/31 13:45:53;;;;;;;1.40;1.00;;;;;;;;;;5050497;28;20091;-64
2024/03/31 13:48:19;;;;;;;2.90;1.38;;;;;;;;;;5050965;28;20445;-63
2024/03/31 13:50:44;;;;;;;0.88;0.85;;;;;;;;;;5051134;28;20029;-61
2024/03/31 13:53:10;;;;;;;2.20;1.30;;;;;;;;;;5050794;28;20093;-61
2024/03/31 13:55:36;;;;;;;1.38;1.20;;;;;;;;;;5051206;28;20025;-64
2024/03/31 13:58:02;;;;;;;1.90;1.45;;;;;;;;;;5050618;28;20434;-62
2024/03/31 14:00:28;;;;;;;1.63;1.08;;;;;;;;;;5050772;28;20025;-63
2024/03/31 14:02:56;;;;;;;1.08;0.85;;;;;;;;;;5050676;28;20338;-62
2024/03/31 14:05:22;;;;;;;2.55;1.50;;;;;;;;;;5051156;28;20494;-63
2024/03/31 14:07:48;;;;;;;1.67;1.15;;;;;;;;;;5051123;28;20372;-64
2024/03/31 14:10:14;;;;;;;1.52;1.10;;;;;;;;;;5042925;28;20120;-65
2024/03/31 14:12:45;;;;;;;2.97;1.60;;;;;;;;;;5051581;28;20032;-64
2024/03/31 14:15:11;;;;;;;2.05;1.42;;;;;;;;;;5052064;28;20063;-63
2024/03/31 14:17:37;;;;;;;2.42;1.35;;;;;;;;;;5053155;28;20412;-64